sensor_id;sensor_type;location;lat;lon;timestamp;pressure;altitude;pressure_sealevel;temperature;humidity
34658;BME280;20865;43.312;27.152;2023-03-01T19:52:15;101196.28;;;13.34;46.38
34658;BME280;20865;43.312;27.152;2023-03-01T19:54:43;101194.30;;;14.03;45.05
34658;BME280;20865;43.312;27.152;2023-03-01T19:57:11;101188.56;;;14.16;44.71
34658;BME280;20865;43.312;27.152;2023-03-01T19:59:39;101185.73;;;14.20;44.59
34658;BME280;20865;43.312;27.152;2023-03-01T20:02:07;101195.84;;;14.12;44.66
34658;BME280;20865;43.312;27.152;2023-03-01T20:04:35;101194.76;;;14.18;44.80
34658;BME280;20865;43.312;27.152;2023-03-01T20:07:03;101196.48;;;14.20;44.61
34658;BME280;20865;43.312;27.152;2023-03-01T20:09:31;101196.38;;;14.23;44.61
34658;BME280;20865;43.312;27.152;2023-03-01T20:11:58;101196.33;;;14.25;44.50
34658;BME280;20865;43.312;27.152;2023-03-01T20:14:26;101200.83;;;14.24;44.47
34658;BME280;20865;43.312;27.152;2023-03-01T20:16:53;101196.73;;;14.26;44.41
34658;BME280;20865;43.312;27.152;2023-03-01T20:19:21;101203.45;;;14.26;44.40
34658;BME280;20865;43.312;27.152;2023-03-01T20:21:50;101206.33;;;14.35;44.09
34658;BME280;20865;43.312;27.152;2023-03-01T20:24:18;101206.33;;;14.35;44.09
34658;BME280;20865;43.312;27.152;2023-03-01T20:26:46;101211.95;;;14.27;44.04
34658;BME280;20865;43.312;27.152;2023-03-01T20:29:13;101207.48;;;14.26;44.05
34658;BME280;20865;43.312;27.152;2023-03-01T20:31:41;101208.80;;;14.27;44.00
34658;BME280;20865;43.312;27.152;2023-03-01T20:34:09;101200.05;;;14.21;44.01
34658;BME280;20865;43.312;27.152;2023-03-01T20:36:36;101199.98;;;14.22;44.00
34658;BME280;20865;43.312;27.152;2023-03-01T20:39:07;101205.01;;;14.20;44.07
34658;BME280;20865;43.312;27.152;2023-03-01T20:41:35;101201.85;;;14.20;44.11
34658;BME280;20865;43.312;27.152;2023-03-01T20:44:03;101203.60;;;14.21;44.04
34658;BME280;20865;43.312;27.152;2023-03-01T20:46:33;101207.03;;;14.12;44.39
34658;BME280;20865;43.312;27.152;2023-03-01T20:49:01;101206.29;;;14.21;44.21
34658;BME280;20865;43.312;27.152;2023-03-01T20:51:29;101210.47;;;14.17;44.38
34658;BME280;20865;43.312;27.152;2023-03-01T20:53:58;101203.70;;;14.03;44.95
34658;BME280;20865;43.312;27.152;2023-03-01T20:56:26;101204.75;;;13.98;45.15
34658;BME280;20865;43.312;27.152;2023-03-01T20:58:54;101198.50;;;13.97;45.16
34658;BME280;20865;43.312;27.152;2023-03-01T21:01:26;101198.09;;;13.96;45.29
34658;BME280;20865;43.312;27.152;2023-03-01T21:03:53;101199.83;;;13.99;45.18
34658;BME280;20865;43.312;27.152;2023-03-01T21:06:22;101195.31;;;14.14;45.01
34658;BME280;20865;43.312;27.152;2023-03-01T21:08:50;101191.59;;;14.18;44.80
34658;BME280;20865;43.312;27.152;2023-03-01T21:11:18;101201.52;;;14.01;45.10
34658;BME280;20865;43.312;27.152;2023-03-01T21:13:47;101200.78;;;13.96;45.32
34658;BME280;20865;43.312;27.152;2023-03-01T21:16:15;101202.19;;;13.95;45.43
34658;BME280;20865;43.312;27.152;2023-03-01T21:18:43;101193.58;;;13.98;45.37
34658;BME280;20865;43.312;27.152;2023-03-01T21:21:17;101194.45;;;13.99;45.18
34658;BME280;20865;43.312;27.152;2023-03-01T21:23:42;101196.55;;;13.88;45.49
34658;BME280;20865;43.312;27.152;2023-03-01T21:26:15;101207.80;;;14.02;45.29
34658;BME280;20865;43.312;27.152;2023-03-01T21:28:44;101205.05;;;14.03;45.46
34658;BME280;20865;43.312;27.152;2023-03-01T21:31:14;101209.31;;;14.11;45.58
34658;BME280;20865;43.312;27.152;2023-03-01T21:33:45;101196.75;;;14.11;45.58
34658;BME280;20865;43.312;27.152;2023-03-01T21:36:13;101201.16;;;14.14;45.04
34658;BME280;20865;43.312;27.152;2023-03-01T21:38:43;101202.56;;;14.12;44.98
34658;BME280;20865;43.312;27.152;2023-03-01T21:41:18;101202.83;;;14.03;44.94
34658;BME280;20865;43.312;27.152;2023-03-01T21:43:47;101198.48;;;13.99;44.92
34658;BME280;20865;43.312;27.152;2023-03-01T21:46:20;101203.13;;;14.09;44.89
34658;BME280;20865;43.312;27.152;2023-03-01T21:48:49;101202.98;;;13.98;45.16
34658;BME280;20865;43.312;27.152;2023-03-01T21:51:20;101182.31;;;13.86;45.24
34658;BME280;20865;43.312;27.152;2023-03-01T21:53:47;101191.67;;;14.02;45.09
34658;BME280;20865;43.312;27.152;2023-03-01T21:56:22;101198.02;;;13.85;45.33
34658;BME280;20865;43.312;27.152;2023-03-01T21:58:49;101185.52;;;13.98;45.01
34658;BME280;20865;43.312;27.152;2023-03-01T22:01:21;101187.27;;;13.85;45.31
34658;BME280;20865;43.312;27.152;2023-03-01T22:03:56;101192.67;;;13.98;45.10
34658;BME280;20865;43.312;27.152;2023-03-01T22:06:26;101190.33;;;14.02;45.06
34658;BME280;20865;43.312;27.152;2023-03-01T22:09:04;101195.78;;;14.14;44.89
34658;BME280;20865;43.312;27.152;2023-03-01T22:11:37;101189.85;;;14.17;44.58
34658;BME280;20865;43.312;27.152;2023-03-01T22:14:08;101192.41;;;14.07;44.28
34658;BME280;20865;43.312;27.152;2023-03-01T22:16:38;101191.12;;;14.05;44.25
34658;BME280;20865;43.312;27.152;2023-03-01T22:19:10;101186.08;;;13.95;44.41
34658;BME280;20865;43.312;27.152;2023-03-01T22:21:39;101192.03;;;13.90;44.54
34658;BME280;20865;43.312;27.152;2023-03-01T22:24:07;101194.86;;;13.85;44.37
34658;BME280;20865;43.312;27.152;2023-03-01T22:26:38;101192.96;;;13.89;44.32
34658;BME280;20865;43.312;27.152;2023-03-01T22:29:15;101197.45;;;13.88;44.28
34658;BME280;20865;43.312;27.152;2023-03-01T22:31:40;101200.14;;;13.88;44.43
34658;BME280;20865;43.312;27.152;2023-03-01T22:34:09;101199.85;;;13.97;44.28
34658;BME280;20865;43.312;27.152;2023-03-01T22:36:37;101201.16;;;13.99;44.11
34658;BME280;20865;43.312;27.152;2023-03-01T22:39:08;101199.67;;;14.03;44.23
34658;BME280;20865;43.312;27.152;2023-03-01T22:41:39;101200.61;;;14.02;44.10
34658;BME280;20865;43.312;27.152;2023-03-01T22:44:19;101198.65;;;14.08;43.71
34658;BME280;20865;43.312;27.152;2023-03-01T22:46:47;101200.89;;;14.23;43.21
34658;BME280;20865;43.312;27.152;2023-03-01T22:49:18;101194.73;;;14.19;42.97
34658;BME280;20865;43.312;27.152;2023-03-01T22:51:46;101200.31;;;14.12;43.22
34658;BME280;20865;43.312;27.152;2023-03-01T22:54:16;101193.20;;;13.96;43.47
34658;BME280;20865;43.312;27.152;2023-03-01T22:56:44;101193.43;;;13.88;43.65
34658;BME280;20865;43.312;27.152;2023-03-01T22:59:17;101191.88;;;13.94;43.57
34658;BME280;20865;43.312;27.152;2023-03-01T23:01:46;101194.16;;;13.93;43.56
34658;BME280;20865;43.312;27.152;2023-03-01T23:04:16;101191.78;;;13.68;44.28
34658;BME280;20865;43.312;27.152;2023-03-01T23:06:45;101179.95;;;13.58;44.36
34658;BME280;20865;43.312;27.152;2023-03-01T23:09:30;101179.95;;;13.58;44.60
34658;BME280;20865;43.312;27.152;2023-03-01T23:11:59;101176.41;;;13.42;44.53
34658;BME280;20865;43.312;27.152;2023-03-01T23:14:30;101186.97;;;13.48;44.68
34658;BME280;20865;43.312;27.152;2023-03-01T23:16:59;101176.64;;;13.49;44.53
34658;BME280;20865;43.312;27.152;2023-03-01T23:22:20;101180.59;;;13.52;44.37
34658;BME280;20865;43.312;27.152;2023-03-01T23:24:44;101183.11;;;13.58;44.38
34658;BME280;20865;43.312;27.152;2023-03-01T23:27:13;101180.42;;;13.58;44.40
34658;BME280;20865;43.312;27.152;2023-03-01T23:29:43;101176.70;;;13.47;44.62
34658;BME280;20865;43.312;27.152;2023-03-01T23:32:11;101171.83;;;13.45;44.48
34658;BME280;20865;43.312;27.152;2023-03-01T23:34:40;101175.83;;;13.47;44.53
34658;BME280;20865;43.312;27.152;2023-03-01T23:37:09;101182.92;;;13.49;44.55
34658;BME280;20865;43.312;27.152;2023-03-01T23:39:37;101179.77;;;13.50;44.55
34658;BME280;20865;43.312;27.152;2023-03-01T23:42:06;101184.84;;;13.44;44.68
34658;BME280;20865;43.312;27.152;2023-03-01T23:44:34;101178.59;;;13.44;44.79
34658;BME280;20865;43.312;27.152;2023-03-01T23:47:03;101178.12;;;13.44;44.73
34658;BME280;20865;43.312;27.152;2023-03-01T23:49:31;101182.86;;;13.51;44.67
34658;BME280;20865;43.312;27.152;2023-03-01T23:52:00;101177.44;;;13.52;44.71
34658;BME280;20865;43.312;27.152;2023-03-01T23:54:27;101179.02;;;13.59;44.68
34658;BME280;20865;43.312;27.152;2023-03-01T23:56:55;101171.32;;;13.64;44.46
34658;BME280;20865;43.312;27.152;2023-03-01T23:59:24;101170.88;;;13.63;44.48
